Time;durP1;ratioP1;P1;durP2;ratioP2;P2;SDS_P1;SDS_P2;PMS_P1;PMS_P2;Temp;Humidity;BMP_temperature;BMP_pressure;BME280_temperature;BME280_humidity;BME280_pressure;Samples;Min_cycle;Max_cycle;Signal;HPM_P1;HPM_P2
2022/10/01 00:01:01;;;;;;;12.57;6.40;;;11.30;99.90;;;;;;5043982;28;20399;-81
2022/10/01 00:03:28;;;;;;;9.02;7.20;;;11.20;99.90;;;;;;5039837;28;20475;-80
2022/10/01 00:06:00;;;;;;;8.45;6.63;;;11.20;99.90;;;;;;5060523;28;20059;-81
2022/10/01 00:08:27;;;;;;;9.35;6.93;;;11.20;99.90;;;;;;5065700;28;20548;-80
2022/10/01 00:10:53;;;;;;;8.95;7.18;;;11.20;99.90;;;;;;5044212;28;20090;-81
2022/10/01 00:13:19;;;;;;;10.07;7.43;;;11.10;99.90;;;;;;5068021;28;20056;-78
2022/10/01 00:15:45;;;;;;;9.00;7.10;;;11.20;99.90;;;;;;5045484;28;20962;-79
2022/10/01 00:18:11;;;;;;;9.75;7.40;;;11.10;99.90;;;;;;5064248;28;20054;-81
2022/10/01 00:20:42;;;;;;;10.40;7.93;;;11.20;99.90;;;;;;5065785;28;20039;-80
2022/10/01 00:23:12;;;;;;;12.10;7.95;;;11.10;99.90;;;;;;5067130;28;20048;-78
2022/10/01 00:25:40;;;;;;;9.20;7.55;;;11.10;99.90;;;;;;5047238;28;20502;-78
2022/10/01 00:28:06;;;;;;;12.85;8.02;;;11.10;99.90;;;;;;5067144;28;20051;-80
2022/10/01 00:30:32;;;;;;;11.73;8.07;;;11.20;99.90;;;;;;5063741;28;20040;-80
2022/10/01 00:32:58;;;;;;;11.07;8.20;;;11.00;99.90;;;;;;5064603;28;20516;-78
2022/10/01 00:35:24;;;;;;;10.75;8.10;;;11.10;99.90;;;;;;5079474;28;20024;-82
2022/10/01 00:37:51;;;;;;;11.88;8.68;;;11.10;99.90;;;;;;5049347;28;20032;-81
2022/10/01 00:40:19;;;;;;;11.95;7.95;;;11.10;99.90;;;;;;5044902;28;20139;-79
2022/10/01 00:42:45;;;;;;;10.40;8.48;;;11.20;99.90;;;;;;5053894;28;20459;-80
2022/10/01 00:45:13;;;;;;;10.40;8.50;;;11.10;99.90;;;;;;5052346;28;20028;-81
2022/10/01 00:47:50;;;;;;;12.38;8.52;;;11.10;99.90;;;;;;5052680;28;20135;-77
2022/10/01 00:50:27;;;;;;;10.80;8.80;;;11.10;99.90;;;;;;5069678;28;20040;-79
2022/10/01 00:53:03;;;;;;;11.70;9.10;;;11.10;99.90;;;;;;5053856;28;21016;-79
2022/10/01 00:55:38;;;;;;;11.80;9.07;;;11.00;99.90;;;;;;5065447;28;20053;-81
2022/10/01 00:58:04;;;;;;;13.45;9.13;;;11.10;99.90;;;;;;5050292;28;20045;-80
2022/10/01 01:00:30;;;;;;;13.35;9.70;;;11.10;99.90;;;;;;5050695;28;20093;-80
2022/10/01 01:02:56;;;;;;;12.18;9.00;;;10.90;99.90;;;;;;5062755;28;20043;-78
2022/10/01 01:05:22;;;;;;;14.10;9.88;;;11.10;99.90;;;;;;5050271;28;20047;-78
2022/10/01 01:07:51;;;;;;;12.75;8.32;;;11.00;99.90;;;;;;5070353;28;20048;-80
2022/10/01 01:10:27;;;;;;;10.57;9.23;;;11.00;99.90;;;;;;5044257;28;20442;-77
2022/10/01 01:13:21;;;;;;;13.38;10.25;;;11.00;99.90;;;;;;5049269;28;20403;-80
2022/10/01 01:15:54;;;;;;;12.15;9.25;;;11.00;99.90;;;;;;5067583;28;20399;-81
2022/10/01 01:18:32;;;;;;;10.82;8.70;;;11.00;99.90;;;;;;5065475;28;20108;-78
2022/10/01 01:21:20;;;;;;;10.93;9.30;;;11.00;99.90;;;;;;5071298;28;20071;-79
2022/10/01 01:24:08;;;;;;;13.95;9.50;;;11.00;99.90;;;;;;5067638;28;20047;-81
2022/10/01 01:27:05;;;;;;;9.65;8.65;;;11.00;99.90;;;;;;5047581;28;20135;-80
2022/10/01 01:30:08;;;;;;;13.85;9.43;;;11.00;99.90;;;;;;5080296;28;20051;-78
2022/10/01 01:32:49;;;;;;;10.48;8.90;;;11.00;99.90;;;;;;4986780;28;20045;-79
2022/10/01 01:35:30;;;;;;;9.57;8.52;;;11.00;99.90;;;;;;5007160;28;20153;-78
2022/10/01 01:38:00;;;;;;;11.70;8.82;;;11.00;99.90;;;;;;4967708;28;20054;-80
2022/10/01 01:40:29;;;;;;;10.85;8.52;;;11.00;99.90;;;;;;4982436;28;20046;-80
2022/10/01 01:42:57;;;;;;;13.57;8.52;;;11.00;99.90;;;;;;4984024;28;20137;-78
2022/10/01 01:45:27;;;;;;;14.23;9.13;;;10.90;99.90;;;;;;4991394;28;20129;-77
2022/10/01 01:47:54;;;;;;;11.23;8.57;;;11.00;99.90;;;;;;4986890;28;20544;-80
2022/10/01 01:50:22;;;;;;;13.38;8.30;;;11.00;99.90;;;;;;5000966;28;20120;-79
2022/10/01 01:52:48;;;;;;;11.73;9.18;;;10.90;99.90;;;;;;4987035;28;20149;-79
2022/10/01 01:55:13;;;;;;;11.27;8.35;;;10.90;99.90;;;;;;5005119;28;20121;-77
2022/10/01 01:57:42;;;;;;;10.65;8.63;;;10.90;99.90;;;;;;4987202;28;20354;-79
2022/10/01 02:00:09;;;;;;;10.25;8.15;;;11.00;99.90;;;;;;4988104;28;20073;-79
2022/10/01 02:02:38;;;;;;;10.63;7.65;;;10.90;99.90;;;;;;4984983;28;20045;-80
2022/10/01 02:05:15;;;;;;;10.23;7.93;;;11.00;99.90;;;;;;5001927;28;20050;-80
2022/10/01 02:07:53;;;;;;;10.13;7.97;;;11.00;99.90;;;;;;5068751;28;20462;-80
2022/10/01 02:10:25;;;;;;;10.75;8.40;;;11.00;99.90;;;;;;5047238;28;20040;-79
2022/10/01 02:13:00;;;;;;;9.27;7.45;;;10.90;99.90;;;;;;5051539;28;20127;-80
2022/10/01 02:15:39;;;;;;;;;;;10.90;99.90;;;;;;5070205;28;20040;-78
2022/10/01 02:18:07;;;;;;;13.52;7.25;;;10.90;99.90;;;;;;5066724;28;20367;-78
2022/10/01 02:20:44;;;;;;;9.07;7.32;;;10.90;99.90;;;;;;5046835;28;20073;-80
2022/10/01 02:23:31;;;;;;;10.82;7.55;;;10.90;99.90;;;;;;5049708;28;20044;-80
2022/10/01 02:26:05;;;;;;;10.05;6.53;;;10.90;99.90;;;;;;5072236;28;20574;-78
2022/10/01 02:28:32;;;;;;;11.00;6.70;;;11.00;99.90;;;;;;5066036;28;20103;-80
2022/10/01 02:31:00;;;;;;;9.90;7.28;;;10.90;99.90;;;;;;5049901;28;20044;-80
2022/10/01 02:33:31;;;;;;;8.18;6.90;;;10.90;99.90;;;;;;5066618;28;20063;-79
2022/10/01 02:36:00;;;;;;;9.07;6.15;;;11.00;99.90;;;;;;5064810;28;20120;-80
2022/10/01 02:38:27;;;;;;;9.52;6.60;;;10.90;99.90;;;;;;5049699;28;20139;-79
2022/10/01 02:40:59;;;;;;;7.10;6.25;;;10.90;99.90;;;;;;5067764;28;20584;-81
2022/10/01 02:43:37;;;;;;;6.95;5.65;;;10.90;99.90;;;;;;5049753;28;20036;-81
2022/10/01 02:46:26;;;;;;;6.97;6.18;;;10.90;99.90;;;;;;5064743;28;20039;-78
2022/10/01 02:48:52;;;;;;;7.40;5.90;;;10.90;99.90;;;;;;5044160;28;20463;-79
2022/10/01 02:51:24;;;;;;;6.25;5.65;;;11.00;99.90;;;;;;5049834;28;20156;-80
2022/10/01 02:54:12;;;;;;;6.63;5.50;;;10.90;99.90;;;;;;5051618;28;20085;-80
2022/10/01 02:59:23;;;;;;;6.78;5.75;;;10.90;99.90;;;;;;5069939;28;20052;-81
2022/10/01 03:02:18;;;;;;;7.68;5.85;;;11.00;99.90;;;;;;5066569;28;20041;-79
2022/10/01 03:04:43;;;;;;;7.03;5.45;;;11.00;99.90;;;;;;5053791;28;20044;-78
2022/10/01 03:07:09;;;;;;;8.25;5.55;;;11.00;99.90;;;;;;5038211;28;20036;-80
2022/10/01 03:09:35;;;;;;;6.68;5.50;;;11.00;99.90;;;;;;5066331;28;20036;-81
2022/10/01 03:12:02;;;;;;;6.57;5.18;;;11.00;99.90;;;;;;5062769;28;20032;-79
2022/10/01 03:14:28;;;;;;;9.48;5.38;;;11.00;99.90;;;;;;5050540;28;20043;-80
2022/10/01 03:16:53;;;;;;;9.13;5.57;;;11.00;99.90;;;;;;5066325;28;20040;-80
2022/10/01 03:19:19;;;;;;;6.18;5.20;;;11.00;99.90;;;;;;5075187;28;20459;-81
2022/10/01 03:21:46;;;;;;;7.13;5.10;;;11.10;99.90;;;;;;5050298;28;20054;-80
2022/10/01 03:24:12;;;;;;;6.03;5.30;;;11.20;99.90;;;;;;5072363;28;20043;-80
2022/10/01 03:26:37;;;;;;;7.30;4.90;;;11.10;99.90;;;;;;5064648;28;20032;-80
2022/10/01 03:29:04;;;;;;;7.40;5.15;;;11.10;99.90;;;;;;5051546;28;20115;-79
2022/10/01 03:31:30;;;;;;;6.35;4.47;;;11.10;99.90;;;;;;5067641;28;20047;-80
2022/10/01 03:33:59;;;;;;;4.80;4.22;;;11.10;99.90;;;;;;5064565;28;20043;-80
2022/10/01 03:36:25;;;;;;;5.05;4.15;;;11.10;99.90;;;;;;5050031;28;20052;-80
2022/10/01 03:38:51;;;;;;;5.38;4.57;;;11.10;99.90;;;;;;5048720;28;20386;-80
2022/10/01 03:41:17;;;;;;;8.82;4.00;;;11.10;99.90;;;;;;5064846;28;20060;-79
2022/10/01 03:43:43;;;;;;;5.25;3.97;;;11.20;99.90;;;;;;5068466;28;20810;-80
2022/10/01 03:46:08;;;;;;;7.13;3.97;;;11.20;99.90;;;;;;5042849;28;20197;-81
2022/10/01 03:48:34;;;;;;;4.05;3.53;;;11.10;99.90;;;;;;5052755;28;20047;-81
2022/10/01 03:50:59;;;;;;;3.65;3.20;;;11.20;99.90;;;;;;5051862;28;20135;-79
2022/10/01 03:53:26;;;;;;;3.78;3.15;;;11.20;99.90;;;;;;5056730;28;20040;-80
2022/10/01 03:55:53;;;;;;;3.03;2.72;;;11.20;99.90;;;;;;5056656;28;20452;-80
2022/10/01 03:58:19;;;;;;;4.10;2.80;;;11.30;99.90;;;;;;5074230;28;20080;-80
2022/10/01 04:00:46;;;;;;;3.65;2.30;;;11.30;99.90;;;;;;5071221;28;20060;-79
2022/10/01 04:03:13;;;;;;;3.00;2.20;;;11.30;99.90;;;;;;5053819;28;20044;-79
2022/10/01 04:05:40;;;;;;;6.03;2.60;;;11.30;99.90;;;;;;5068410;28;20083;-80
2022/10/01 04:08:06;;;;;;;3.25;2.30;;;11.30;99.90;;;;;;5056599;28;20109;-79
2022/10/01 04:10:32;;;;;;;3.50;2.35;;;11.30;99.90;;;;;;5072209;28;20040;-79
2022/10/01 04:12:58;;;;;;;2.72;2.00;;;11.30;99.90;;;;;;5071834;28;20426;-80
2022/10/01 04:15:24;;;;;;;3.00;2.00;;;11.30;99.90;;;;;;5071051;28;20044;-79
2022/10/01 04:17:49;;;;;;;2.40;2.08;;;11.30;99.90;;;;;;5059427;28;20042;-81
2022/10/01 04:20:15;;;;;;;4.07;2.25;;;11.30;99.90;;;;;;5078267;28;20059;-78
2022/10/01 04:22:42;;;;;;;3.75;2.30;;;11.30;99.90;;;;;;5076043;28;20201;-79
2022/10/01 04:25:11;;;;;;;3.03;2.20;;;11.30;99.90;;;;;;5054752;28;20055;-78
2022/10/01 04:27:38;;;;;;;2.30;2.10;;;11.30;99.90;;;;;;5083291;28;20047;-77
2022/10/01 04:30:05;;;;;;;2.63;1.80;;;11.30;99.90;;;;;;5065158;28;20044;-81
2022/10/01 04:32:31;;;;;;;2.45;2.10;;;11.30;99.90;;;;;;5069384;28;20056;-79
2022/10/01 04:34:56;;;;;;;2.10;1.90;;;11.30;99.90;;;;;;5073544;28;20498;-81
2022/10/01 04:37:23;;;;;;;1.92;1.80;;;11.30;99.90;;;;;;5056760;28;20039;-79
2022/10/01 04:39:48;;;;;;;5.75;2.10;;;11.40;99.90;;;;;;5072999;28;20181;-80
2022/10/01 04:42:14;;;;;;;1.90;1.80;;;11.30;99.90;;;;;;5055484;28;20116;-80
2022/10/01 04:44:40;;;;;;;1.70;1.60;;;11.30;99.90;;;;;;5056060;28;20032;-80
2022/10/01 04:47:07;;;;;;;2.72;2.00;;;11.40;99.90;;;;;;5070162;28;20543;-80
2022/10/01 04:49:33;;;;;;;2.75;1.95;;;11.30;99.90;;;;;;5073075;28;20143;-79
2022/10/01 04:52:02;;;;;;;3.15;2.10;;;11.40;99.90;;;;;;5071326;28;20118;-79
2022/10/01 04:54:28;;;;;;;2.80;2.58;;;11.30;99.90;;;;;;5072001;28;20047;-80
2022/10/01 04:56:54;;;;;;;3.30;2.38;;;11.40;99.90;;;;;;5066522;28;20040;-80
2022/10/01 04:59:19;;;;;;;2.47;2.28;;;11.40;99.90;;;;;;5075115;28;20150;-79
2022/10/01 05:01:45;;;;;;;3.97;2.58;;;11.40;99.90;;;;;;5048354;28;20495;-81
2022/10/01 05:04:11;;;;;;;7.55;2.78;;;11.40;99.90;;;;;;5052055;28;20130;-81
2022/10/01 05:06:37;;;;;;;3.28;2.53;;;11.50;99.90;;;;;;5055788;28;20379;-78
2022/10/01 05:09:03;;;;;;;3.20;2.90;;;11.30;99.90;;;;;;5054766;28;20128;-80
2022/10/01 05:11:29;;;;;;;3.35;2.63;;;11.50;99.90;;;;;;5091209;28;20063;-80
2022/10/01 05:13:55;;;;;;;4.18;2.95;;;11.40;99.90;;;;;;5052018;28;20059;-80
2022/10/01 05:16:21;;;;;;;4.50;2.65;;;11.50;99.90;;;;;;5054395;28;20044;-79
2022/10/01 05:18:46;;;;;;;3.13;2.78;;;11.50;99.90;;;;;;5072886;28;20044;-78
2022/10/01 05:21:14;;;;;;;7.47;2.88;;;11.50;99.90;;;;;;5054674;28;20062;-80
2022/10/01 05:23:40;;;;;;;4.15;2.92;;;11.50;99.90;;;;;;5052751;28;20036;-80
2022/10/01 05:26:07;;;;;;;3.63;2.95;;;11.40;99.90;;;;;;5055018;28;20127;-80
2022/10/01 05:28:34;;;;;;;4.90;3.05;;;11.50;99.90;;;;;;5051483;28;20035;-80
2022/10/01 05:31:00;;;;;;;3.92;3.30;;;11.50;99.90;;;;;;5071239;28;20071;-79
2022/10/01 05:33:26;;;;;;;8.38;3.33;;;11.60;99.90;;;;;;5070642;28;20519;-81
2022/10/01 05:35:52;;;;;;;3.92;3.20;;;11.50;99.90;;;;;;5055977;28;20039;-80
2022/10/01 05:38:18;;;;;;;5.10;3.42;;;11.60;99.90;;;;;;5053165;28;20156;-81
2022/10/01 05:40:45;;;;;;;4.05;3.53;;;11.60;99.90;;;;;;5072796;28;20067;-80
2022/10/01 05:43:11;;;;;;;6.32;3.85;;;11.60;99.90;;;;;;5068502;28;20074;-80
2022/10/01 05:45:37;;;;;;;5.00;3.80;;;11.60;99.90;;;;;;5052153;28;20043;-79
2022/10/01 05:48:06;;;;;;;8.60;3.90;;;11.60;99.90;;;;;;5055722;28;20044;-79
2022/10/01 05:50:34;;;;;;;5.03;3.92;;;11.60;99.90;;;;;;5075670;28;20133;-80
2022/10/01 05:53:01;;;;;;;9.25;4.20;;;11.70;99.90;;;;;;5069819;28;20051;-81
2022/10/01 05:55:33;;;;;;;5.00;4.50;;;11.60;99.90;;;;;;5085963;28;20158;-79
2022/10/01 05:58:02;;;;;;;6.32;4.38;;;11.70;99.90;;;;;;5072587;28;20040;-79
2022/10/01 06:00:29;;;;;;;5.50;4.38;;;11.70;99.90;;;;;;5071328;28;20064;-81
2022/10/01 06:03:37;;;;;;;7.55;4.75;;;11.80;99.90;;;;;;5054930;28;20040;-81
2022/10/01 06:06:04;;;;;;;11.50;5.40;;;11.80;99.90;;;;;;5069640;28;20058;-80
2022/10/01 06:08:32;;;;;;;11.40;5.40;;;11.80;99.90;;;;;;5050455;28;20543;-80
2022/10/01 06:11:00;;;;;;;10.07;5.22;;;11.80;99.90;;;;;;5066852;28;20106;-79
2022/10/01 06:13:27;;;;;;;7.63;5.60;;;11.90;99.90;;;;;;5067335;28;20467;-78
2022/10/01 06:15:53;;;;;;;7.47;5.28;;;11.90;99.90;;;;;;5053647;28;20063;-78
2022/10/01 06:18:18;;;;;;;7.70;5.47;;;11.90;99.90;;;;;;5075799;28;20059;-82
2022/10/01 06:20:44;;;;;;;7.85;5.50;;;12.00;99.90;;;;;;5050104;28;20452;-78
2022/10/01 06:23:11;;;;;;;10.40;6.13;;;12.00;99.90;;;;;;5051668;28;20033;-80
2022/10/01 06:25:42;;;;;;;12.60;5.90;;;12.00;99.90;;;;;;5055499;28;20047;-80
2022/10/01 06:28:09;;;;;;;10.68;6.50;;;12.00;99.90;;;;;;5035745;28;20028;-80
2022/10/01 06:30:37;;;;;;;11.10;6.05;;;12.00;99.90;;;;;;5048771;28;20547;-80
2022/10/01 06:33:08;;;;;;;13.10;6.20;;;11.90;99.90;;;;;;5048786;28;20139;-84
2022/10/01 06:35:38;;;;;;;13.75;6.78;;;11.90;99.90;;;;;;5052878;28;20475;-80
2022/10/01 06:38:05;;;;;;;20.13;7.05;;;11.90;99.90;;;;;;5051709;28;20047;-81
2022/10/01 06:40:31;;;;;;;12.02;6.70;;;11.90;99.90;;;;;;5046660;28;20163;-78
2022/10/01 06:42:57;;;;;;;10.98;6.60;;;12.00;99.90;;;;;;5031320;28;20207;-80
2022/10/01 06:45:30;;;;;;;16.30;7.30;;;11.90;99.90;;;;;;5031531;28;20064;-81
2022/10/01 06:47:58;;;;;;;12.48;7.10;;;12.10;99.90;;;;;;5049767;28;20056;-80
2022/10/01 06:50:24;;;;;;;11.05;7.03;;;12.00;99.90;;;;;;5030168;28;20079;-80
2022/10/01 06:52:51;;;;;;;16.38;6.95;;;12.10;99.90;;;;;;5051972;28;20036;-80
2022/10/01 06:55:24;;;;;;;15.85;7.38;;;12.20;99.90;;;;;;5035599;28;20072;-78
2022/10/01 06:57:54;;;;;;;15.65;6.93;;;12.10;99.90;;;;;;5033911;28;20380;-78
2022/10/01 07:00:24;;;;;;;12.30;6.90;;;12.30;99.90;;;;;;5059654;28;20040;-79
2022/10/01 07:02:50;;;;;;;13.40;7.45;;;12.30;99.90;;;;;;5028259;28;20063;-79
2022/10/01 07:05:16;;;;;;;18.45;7.82;;;12.40;99.90;;;;;;5044254;28;20048;-79
2022/10/01 07:07:43;;;;;;;13.80;7.47;;;12.50;99.90;;;;;;5044524;28;20044;-80
2022/10/01 07:10:10;;;;;;;14.55;7.05;;;12.60;99.90;;;;;;5060912;28;20060;-80
2022/10/01 07:12:37;;;;;;;13.65;7.50;;;12.60;99.90;;;;;;5043619;28;20044;-80
2022/10/01 07:15:04;;;;;;;14.35;6.38;;;12.70;99.90;;;;;;5044553;28;20048;-79
2022/10/01 07:17:31;;;;;;;15.68;6.78;;;12.70;99.90;;;;;;5049672;28;20068;-79
2022/10/01 07:19:57;;;;;;;15.25;6.35;;;12.80;99.90;;;;;;5045906;28;20052;-79
2022/10/01 07:22:24;;;;;;;13.63;6.38;;;12.80;99.90;;;;;;5060296;28;20036;-79
2022/10/01 07:24:50;;;;;;;16.92;5.93;;;12.80;99.90;;;;;;5042229;28;20051;-81
2022/10/01 07:27:17;;;;;;;16.20;5.75;;;12.80;99.90;;;;;;5046834;28;20125;-79
2022/10/01 07:29:47;;;;;;;13.45;5.60;;;12.80;99.90;;;;;;5065520;28;20459;-81
2022/10/01 07:32:17;;;;;;;16.83;5.80;;;12.80;99.90;;;;;;5045635;28;20200;-80
2022/10/01 07:34:43;;;;;;;17.27;5.82;;;12.80;99.90;;;;;;5049454;28;20052;-77
2022/10/01 07:37:09;;;;;;;19.55;5.60;;;12.80;99.90;;;;;;5050250;28;20105;-79
2022/10/01 07:39:36;;;;;;;16.88;5.70;;;12.80;99.90;;;;;;5066139;28;20083;-82
2022/10/01 07:42:02;;;;;;;21.13;5.80;;;12.70;99.90;;;;;;5049015;28;20118;-81
2022/10/01 07:44:28;;;;;;;15.15;4.70;;;12.70;99.90;;;;;;5063520;28;20036;-81
2022/10/01 07:46:55;;;;;;;17.42;5.03;;;12.70;99.90;;;;;;5062644;28;20191;-81
2022/10/01 07:49:23;;;;;;;14.93;4.20;;;12.80;99.90;;;;;;5045396;28;20052;-80
2022/10/01 07:51:50;;;;;;;15.65;3.90;;;12.90;99.90;;;;;;5050982;28;20556;-80
2022/10/01 07:54:15;;;;;;;14.75;4.07;;;13.10;99.90;;;;;;5053245;28;20052;-81
2022/10/01 07:56:41;;;;;;;19.75;3.72;;;13.00;99.90;;;;;;5056224;28;20100;-81
2022/10/01 07:59:09;;;;;;;19.90;3.47;;;13.10;99.90;;;;;;5072928;28;20059;-79
2022/10/01 08:01:35;;;;;;;16.00;3.60;;;13.20;99.90;;;;;;5070271;28;20597;-80
2022/10/01 08:05:16;;;;;;;15.10;3.45;;;13.20;99.90;;;;;;5071132;28;20368;-80
2022/10/01 08:06:47;;;;;;;11.82;2.78;;;13.20;99.90;;;;;;5056333;28;20036;-80
2022/10/01 08:09:14;;;;;;;18.70;3.30;;;13.30;99.90;;;;;;5069357;28;20348;-80
2022/10/01 08:11:40;;;;;;;16.65;3.05;;;13.30;99.90;;;;;;5050860;28;20086;-80
2022/10/01 08:14:06;;;;;;;10.48;2.58;;;13.40;99.90;;;;;;5074657;28;20131;-79
2022/10/01 08:16:33;;;;;;;17.83;3.40;;;13.50;99.90;;;;;;5054963;28;20130;-80
2022/10/01 08:18:59;;;;;;;18.02;3.30;;;13.50;99.90;;;;;;5053977;28;20143;-79
2022/10/01 08:21:28;;;;;;;20.88;2.90;;;13.60;99.90;;;;;;5067267;28;20129;-80
2022/10/01 08:23:54;;;;;;;16.60;2.95;;;13.70;99.90;;;;;;5085996;28;20047;-80
2022/10/01 08:26:19;;;;;;;22.48;3.30;;;13.80;99.90;;;;;;5058390;28;20380;-78
2022/10/01 08:28:45;;;;;;;18.42;3.20;;;13.80;99.90;;;;;;5072397;28;20044;-79
2022/10/01 08:31:11;;;;;;;17.48;2.72;;;13.80;99.90;;;;;;5069806;28;20091;-78
2022/10/01 08:33:37;;;;;;;20.02;2.60;;;13.90;99.90;;;;;;5071137;28;20121;-78
2022/10/01 08:36:07;;;;;;;16.38;2.60;;;14.10;99.90;;;;;;5056277;28;20051;-79
2022/10/01 08:38:34;;;;;;;18.27;2.60;;;14.20;99.90;;;;;;5071757;28;20334;-78
2022/10/01 08:41:08;;;;;;;18.10;2.90;;;14.30;99.90;;;;;;5068635;28;20132;-80
2022/10/01 08:43:37;;;;;;;20.48;2.67;;;14.30;99.90;;;;;;5049801;28;20135;-79
2022/10/01 08:46:13;;;;;;;17.88;2.60;;;14.60;99.90;;;;;;5058197;28;20040;-78
2022/10/01 08:48:39;;;;;;;18.25;2.53;;;14.70;99.90;;;;;;5056258;28;20093;-79
2022/10/01 08:51:16;;;;;;;18.17;2.85;;;14.90;99.90;;;;;;5040950;28;20041;-81
2022/10/01 08:54:14;;;;;;;18.95;3.08;;;15.10;99.90;;;;;;5055543;28;20404;-80
2022/10/01 08:56:45;;;;;;;13.80;2.53;;;15.20;99.90;;;;;;5042779;28;20158;-79
2022/10/01 08:59:27;;;;;;;16.58;2.67;;;15.40;99.90;;;;;;5056143;28;20109;-80
2022/10/01 09:01:55;;;;;;;12.30;2.17;;;15.60;99.90;;;;;;5053743;28;20083;-80
2022/10/01 09:04:21;;;;;;;15.68;2.10;;;15.70;99.90;;;;;;5043558;28;20059;-79
2022/10/01 09:06:55;;;;;;;16.23;2.53;;;15.60;99.90;;;;;;5047536;28;20041;-79
2022/10/01 09:09:46;;;;;;;22.63;4.03;;;15.70;99.90;;;;;;5056396;28;20372;-79
2022/10/01 09:12:30;;;;;;;18.55;2.85;;;15.80;99.90;;;;;;4981229;28;20061;-79
2022/10/01 09:15:23;;;;;;;21.25;3.20;;;15.80;99.90;;;;;;4986702;28;20120;-79
2022/10/01 09:17:55;;;;;;;21.20;3.00;;;15.60;99.90;;;;;;4983926;28;20058;-80
2022/10/01 09:20:21;;;;;;;21.25;2.67;;;15.70;99.90;;;;;;4985393;28;20061;-77
2022/10/01 09:23:18;;;;;;;17.38;2.67;;;15.70;99.90;;;;;;5000483;28;20043;-76
2022/10/01 09:25:49;;;;;;;18.25;3.10;;;15.70;99.90;;;;;;4975510;28;20054;-79
2022/10/01 09:28:16;;;;;;;17.48;2.60;;;15.60;99.90;;;;;;4990940;28;20975;-78
2022/10/01 09:30:49;;;;;;;15.00;2.70;;;15.70;99.90;;;;;;4964091;28;20046;-78
2022/10/01 09:33:18;;;;;;;20.20;3.75;;;15.60;99.90;;;;;;4980691;28;20473;-79
2022/10/01 09:36:00;;;;;;;12.93;2.55;;;15.80;99.90;;;;;;4973244;28;20057;-77
2022/10/01 09:38:40;;;;;;;12.77;2.28;;;16.00;99.90;;;;;;4981840;28;20080;-79
2022/10/01 09:41:10;;;;;;;9.02;1.88;;;15.90;99.90;;;;;;4981728;28;20429;-80
2022/10/01 09:43:38;;;;;;;9.55;1.83;;;15.80;99.90;;;;;;4958481;28;20050;-79
2022/10/01 09:46:12;;;;;;;9.65;1.48;;;15.60;99.90;;;;;;4974894;28;20049;-80
2022/10/01 09:48:59;;;;;;;9.33;1.30;;;15.70;99.90;;;;;;5011518;28;20079;-80
2022/10/01 09:51:35;;;;;;;9.93;1.63;;;15.60;99.90;;;;;;5053519;28;20044;-78
2022/10/01 09:54:18;;;;;;;11.00;2.15;;;15.60;99.90;;;;;;5073008;28;20460;-79
2022/10/01 09:56:49;;;;;;;14.05;2.22;;;15.50;99.90;;;;;;5053937;28;20074;-80
2022/10/01 09:59:21;;;;;;;15.32;2.20;;;15.40;99.90;;;;;;5063547;28;20103;-81
2022/10/01 10:01:50;;;;;;;12.68;1.67;;;14.90;99.90;;;;;;5049379;28;20070;-80
2022/10/01 10:04:22;;;;;;;10.77;1.92;;;14.70;99.90;;;;;;5057628;28;20204;-80
2022/10/01 10:06:49;;;;;;;9.35;1.85;;;14.40;99.90;;;;;;5049808;28;20047;-79
2022/10/01 10:09:29;;;;;;;10.02;1.70;;;14.30;99.90;;;;;;5035823;28;20045;-78
2022/10/01 10:11:56;;;;;;;10.77;1.80;;;14.20;99.90;;;;;;5021692;28;20186;-81
2022/10/01 10:14:33;;;;;;;7.50;1.90;;;14.10;99.90;;;;;;5054349;28;20048;-81
2022/10/01 10:17:11;;;;;;;7.32;2.30;;;14.10;99.90;;;;;;5053344;28;20128;-77
2022/10/01 10:19:37;;;;;;;8.82;1.60;;;13.90;99.90;;;;;;5054707;28;20060;-81
2022/10/01 10:22:23;;;;;;;10.77;2.15;;;13.70;99.90;;;;;;5060141;28;20068;-81
2022/10/01 10:24:53;;;;;;;9.18;1.85;;;13.60;99.90;;;;;;5053607;28;20456;-80
2022/10/01 10:27:27;;;;;;;13.27;2.00;;;13.40;99.90;;;;;;5058353;28;20444;-82
2022/10/01 10:30:14;;;;;;;11.43;1.45;;;13.40;99.90;;;;;;5080000;28;20063;-82
2022/10/01 10:32:41;;;;;;;8.40;1.48;;;13.30;99.90;;;;;;5058478;28;20436;-81
2022/10/01 10:35:12;;;;;;;7.45;1.40;;;13.30;99.90;;;;;;5072428;28;20080;-84
2022/10/01 10:37:48;;;;;;;11.75;1.52;;;13.20;99.90;;;;;;5066521;28;20040;-81
2022/10/01 10:40:33;;;;;;;8.05;1.40;;;13.30;99.90;;;;;;5068006;28;20126;-80
2022/10/01 10:42:59;;;;;;;10.38;1.63;;;13.30;99.90;;;;;;5068270;28;20510;-79
2022/10/01 10:45:34;;;;;;;6.00;1.13;;;13.30;99.90;;;;;;5051022;28;20040;-84
2022/10/01 10:48:03;;;;;;;8.45;1.13;;;13.30;99.90;;;;;;5068799;28;20043;-79
2022/10/01 10:50:37;;;;;;;7.75;1.15;;;13.40;99.90;;;;;;5069437;28;20062;-78
2022/10/01 10:53:25;;;;;;;4.60;1.20;;;13.40;99.90;;;;;;5046870;28;20059;-80
2022/10/01 10:56:02;;;;;;;8.55;1.27;;;13.60;99.90;;;;;;5049109;28;20044;-79
2022/10/01 10:58:32;;;;;;;5.60;1.17;;;13.70;99.90;;;;;;5046772;28;20055;-80
2022/10/01 11:01:08;;;;;;;5.13;1.38;;;13.80;99.90;;;;;;5042746;28;20044;-79
2022/10/01 11:03:45;;;;;;;10.15;1.45;;;13.90;99.90;;;;;;5069835;28;20480;-80
2022/10/01 11:06:13;;;;;;;9.93;1.58;;;13.90;99.90;;;;;;5047766;28;20481;-79
2022/10/01 11:08:39;;;;;;;10.38;1.58;;;13.80;99.90;;;;;;5068606;28;20429;-80
2022/10/01 11:11:34;;;;;;;8.90;1.67;;;14.00;99.90;;;;;;5065718;28;20051;-81
2022/10/01 11:14:20;;;;;;;7.07;1.60;;;14.00;99.90;;;;;;5067010;28;20051;-80
2022/10/01 11:17:22;;;;;;;7.93;1.55;;;14.10;99.90;;;;;;5043143;28;20681;-80
2022/10/01 11:20:06;;;;;;;7.88;1.40;;;14.20;99.90;;;;;;5064015;28;20048;-79
2022/10/01 11:22:53;;;;;;;8.10;1.27;;;14.20;99.90;;;;;;5082701;28;20052;-79
2022/10/01 11:25:33;;;;;;;5.40;1.30;;;14.20;99.90;;;;;;5053437;28;20044;-79
2022/10/01 11:28:38;;;;;;;8.88;1.60;;;14.30;99.90;;;;;;5050720;28;20051;-81
2022/10/01 11:31:13;;;;;;;8.38;1.58;;;14.50;99.90;;;;;;5066016;28;20044;-77
2022/10/01 11:34:04;;;;;;;8.45;1.60;;;14.80;99.90;;;;;;5065355;28;20048;-78
2022/10/01 11:36:48;;;;;;;7.15;1.48;;;14.80;99.90;;;;;;5046163;28;20067;-77
2022/10/01 11:39:17;;;;;;;9.07;1.55;;;14.80;99.90;;;;;;5067280;28;20483;-78
2022/10/01 11:41:50;;;;;;;5.93;1.70;;;15.10;99.90;;;;;;5055472;28;20047;-77
2022/10/01 11:44:41;;;;;;;11.17;1.80;;;15.20;99.90;;;;;;5073014;28;20052;-78
2022/10/01 11:47:23;;;;;;;12.30;2.08;;;15.30;99.90;;;;;;5050162;28;20420;-76
2022/10/01 11:50:06;;;;;;;9.45;2.10;;;15.50;99.90;;;;;;5080306;28;20044;-77
2022/10/01 11:52:37;;;;;;;10.15;1.67;;;15.70;99.90;;;;;;5055982;28;20109;-78
2022/10/01 11:58:51;;;;;;;13.40;1.90;;;15.50;99.90;;;;;;5066013;28;20105;-77
2022/10/01 12:01:23;;;;;;;18.33;3.17;;;15.60;99.90;;;;;;5041659;28;20056;-78
2022/10/01 12:04:09;;;;;;;15.55;2.25;;;15.60;99.90;;;;;;5060144;28;20504;-78
2022/10/01 12:06:39;;;;;;;18.80;2.67;;;15.70;99.90;;;;;;4982619;28;20140;-78
2022/10/01 12:09:14;;;;;;;14.18;2.78;;;15.80;99.90;;;;;;4959855;28;20050;-78
2022/10/01 12:11:48;;;;;;;14.20;2.70;;;15.80;99.90;;;;;;4979915;28;20057;-79
2022/10/01 12:14:18;;;;;;;16.23;2.45;;;15.80;99.90;;;;;;4971619;28;20058;-78
2022/10/01 12:17:05;;;;;;;18.50;2.70;;;15.90;99.90;;;;;;4961516;28;20049;-76
2022/10/01 12:19:35;;;;;;;17.60;2.17;;;15.90;99.90;;;;;;4988062;28;20056;-78
2022/10/01 12:22:31;;;;;;;17.40;2.15;;;16.00;99.90;;;;;;4923547;28;20070;-77
2022/10/01 12:24:57;;;;;;;17.77;2.70;;;16.10;99.90;;;;;;4968716;28;20062;-78
2022/10/01 12:27:35;;;;;;;19.27;2.47;;;16.20;99.90;;;;;;4953262;28;20050;-78
2022/10/01 12:30:06;;;;;;;17.90;2.05;;;16.30;99.90;;;;;;4951901;28;20391;-79
2022/10/01 12:32:59;;;;;;;14.85;2.70;;;16.40;99.90;;;;;;4951276;28;20554;-79
2022/10/01 12:35:55;;;;;;;15.48;2.47;;;16.40;99.90;;;;;;4934154;29;20520;-78
2022/10/01 12:38:30;;;;;;;13.48;2.25;;;16.30;99.90;;;;;;4940444;28;20486;-78
2022/10/01 12:40:58;;;;;;;11.25;2.25;;;16.40;99.90;;;;;;4956549;28;20057;-78
2022/10/01 12:43:34;;;;;;;10.73;1.80;;;16.50;99.90;;;;;;4963742;28;20093;-79
2022/10/01 12:46:26;;;;;;;12.43;2.13;;;16.60;99.90;;;;;;5008593;28;20128;-78
2022/10/01 12:49:35;;;;;;;16.55;2.22;;;16.60;99.90;;;;;;4995455;28;20061;-81
2022/10/01 12:52:10;;;;;;;14.52;2.17;;;16.60;99.90;;;;;;4994744;28;20101;-82
2022/10/01 12:54:57;;;;;;;12.07;2.20;;;16.50;99.90;;;;;;4996645;28;20052;-80
2022/10/01 12:57:41;;;;;;;14.13;1.90;;;16.20;99.90;;;;;;4979599;28;20172;-80
2022/10/01 13:00:10;;;;;;;10.18;1.58;;;16.10;99.90;;;;;;4996712;28;20046;-78
2022/10/01 13:02:48;;;;;;;10.38;1.80;;;15.90;99.90;;;;;;5036491;28;20075;-79
2022/10/01 13:05:27;;;;;;;6.90;1.60;;;15.40;99.90;;;;;;5059289;28;20044;-79
2022/10/01 13:08:16;;;;;;;8.68;1.58;;;15.10;99.90;;;;;;5056615;28;20041;-82
2022/10/01 13:10:51;;;;;;;7.95;1.67;;;14.90;99.90;;;;;;5054615;28;20047;-81